Time;durP1;ratioP1;P1;durP2;ratioP2;P2;SDS_P1;SDS_P2;PMS_P1;PMS_P2;Temp;Humidity;BMP_temperature;BMP_pressure;BME280_temperature;BME280_humidity;BME280_pressure;Samples;Min_cycle;Max_cycle;Signal;HPM_P1;HPM_P2
2023/09/25 00:01:47;;;;;;;11.43;3.80;;;8.30;99.90;;;;;;5030748;28;20496;-68
2023/09/25 00:04:15;;;;;;;9.33;3.20;;;8.30;99.90;;;;;;5030910;28;20532;-67
2023/09/25 00:06:44;;;;;;;8.87;3.10;;;8.30;99.90;;;;;;5030347;28;20446;-67
2023/09/25 00:09:12;;;;;;;10.43;3.30;;;8.20;99.90;;;;;;5030569;28;20503;-68
2023/09/25 00:11:40;;;;;;;8.70;3.30;;;8.10;99.90;;;;;;5030862;28;20456;-68
2023/09/25 00:14:08;;;;;;;8.60;3.20;;;8.10;99.90;;;;;;5030704;28;20446;-67
2023/09/25 00:16:36;;;;;;;9.63;3.27;;;8.10;99.90;;;;;;5030508;28;20451;-64
2023/09/25 00:19:05;;;;;;;11.90;3.80;;;8.00;99.90;;;;;;5030538;28;20472;-68
2023/09/25 00:21:34;;;;;;;9.73;3.80;;;7.90;99.90;;;;;;5030597;28;20445;-69
2023/09/25 00:24:04;;;;;;;10.63;4.00;;;7.80;99.90;;;;;;5029836;28;20489;-68
2023/09/25 00:26:32;;;;;;;9.70;3.40;;;7.80;99.90;;;;;;5029570;28;20843;-67
2023/09/25 00:29:00;;;;;;;9.63;3.83;;;7.90;99.90;;;;;;5029430;28;20519;-69
2023/09/25 00:31:28;;;;;;;9.43;3.50;;;7.90;99.90;;;;;;5030939;28;20453;-68
2023/09/25 00:33:56;;;;;;;12.07;4.27;;;7.80;99.90;;;;;;5026851;28;20920;-68
2023/09/25 00:36:25;;;;;;;13.10;5.63;;;7.70;99.90;;;;;;5029839;28;20446;-67
2023/09/25 00:38:53;;;;;;;11.30;3.70;;;7.70;99.90;;;;;;5029474;28;20441;-67
2023/09/25 00:41:22;;;;;;;9.20;3.57;;;7.70;99.90;;;;;;5029438;28;20530;-68
2023/09/25 00:43:50;;;;;;;8.40;3.20;;;7.70;99.90;;;;;;5029355;28;20496;-67
2023/09/25 00:46:18;;;;;;;11.37;3.50;;;7.90;99.90;;;;;;5029722;28;20451;-67
2023/09/25 00:48:46;;;;;;;8.77;3.13;;;7.90;99.90;;;;;;5029305;28;20453;-66
2023/09/25 00:51:14;;;;;;;9.80;3.70;;;7.70;99.90;;;;;;5029678;28;20455;-68
2023/09/25 00:53:45;;;;;;;10.60;4.27;;;7.60;99.90;;;;;;5029147;28;20500;-67
2023/09/25 00:56:13;;;;;;;9.30;3.90;;;7.50;99.90;;;;;;5029729;28;20452;-68
2023/09/25 00:58:42;;;;;;;8.80;3.33;;;7.70;99.90;;;;;;5029014;28;20449;-66
2023/09/25 01:01:11;;;;;;;11.37;4.10;;;7.70;99.90;;;;;;5029455;28;20904;-67
2023/09/25 01:03:40;;;;;;;10.30;4.03;;;7.60;99.90;;;;;;5029287;28;20476;-67
2023/09/25 01:06:08;;;;;;;9.63;2.97;;;7.60;99.90;;;;;;5029209;28;20495;-67
2023/09/25 01:08:36;;;;;;;8.80;3.43;;;7.60;99.90;;;;;;5028534;28;20450;-67
2023/09/25 01:11:05;;;;;;;8.60;3.40;;;7.50;99.90;;;;;;5029390;28;20445;-65
2023/09/25 01:13:33;;;;;;;9.53;3.70;;;7.50;99.90;;;;;;5029267;28;20445;-67
2023/09/25 01:16:03;;;;;;;9.90;4.10;;;7.50;99.90;;;;;;5029146;28;20851;-67
2023/09/25 01:18:31;;;;;;;11.03;3.70;;;7.60;99.90;;;;;;5028330;28;20946;-67
2023/09/25 01:21:02;;;;;;;10.40;3.97;;;7.40;99.90;;;;;;5029248;28;20547;-67
2023/09/25 01:23:31;;;;;;;9.83;3.43;;;7.30;99.90;;;;;;5028742;28;20573;-68
2023/09/25 01:26:00;;;;;;;9.80;3.63;;;7.30;99.90;;;;;;5021312;28;20441;-67
2023/09/25 01:28:27;;;;;;;12.77;3.70;;;7.40;99.90;;;;;;5028435;28;20445;-67
2023/09/25 01:30:55;;;;;;;9.23;3.60;;;7.40;99.90;;;;;;5028639;28;20833;-67
2023/09/25 01:33:23;;;;;;;10.63;3.40;;;7.40;99.90;;;;;;5028637;28;20445;-67
2023/09/25 01:35:51;;;;;;;9.60;3.63;;;7.40;99.90;;;;;;5028664;28;20445;-67
2023/09/25 01:38:19;;;;;;;8.50;3.10;;;7.50;99.90;;;;;;5028246;28;20527;-67
2023/09/25 01:40:48;;;;;;;8.80;3.60;;;7.40;99.90;;;;;;5028712;28;20511;-67
2023/09/25 01:43:17;;;;;;;9.53;3.23;;;7.40;99.90;;;;;;5028571;28;20445;-67
2023/09/25 01:45:45;;;;;;;9.70;3.83;;;7.40;99.90;;;;;;5028521;28;20921;-67
2023/09/25 01:48:13;;;;;;;8.50;3.47;;;7.50;99.90;;;;;;5028253;28;20450;-68
2023/09/25 01:50:43;;;;;;;8.83;3.00;;;7.60;99.90;;;;;;5028675;28;20499;-67
2023/09/25 01:53:10;;;;;;;10.00;3.30;;;7.70;99.90;;;;;;5028427;28;20451;-68
2023/09/25 01:55:40;;;;;;;9.00;3.20;;;7.70;99.90;;;;;;5028500;28;20445;-67
2023/09/25 01:58:09;;;;;;;12.50;3.77;;;7.60;99.90;;;;;;5028169;28;20621;-67
2023/09/25 02:00:37;;;;;;;9.23;3.53;;;7.40;99.90;;;;;;5028233;28;20981;-67
2023/09/25 02:03:06;;;;;;;10.83;3.90;;;7.40;99.90;;;;;;5027748;28;20446;-67
2023/09/25 02:05:34;;;;;;;10.33;4.20;;;7.40;99.90;;;;;;5028489;28;20477;-67
2023/09/25 02:08:02;;;;;;;8.40;2.97;;;7.50;99.90;;;;;;5028091;28;20821;-68
2023/09/25 02:10:33;;;;;;;9.53;3.73;;;7.50;99.90;;;;;;5028707;28;20464;-68
2023/09/25 02:13:01;;;;;;;9.10;3.43;;;7.60;99.90;;;;;;5021056;28;20434;-67
2023/09/25 02:15:30;;;;;;;8.10;3.00;;;7.50;99.90;;;;;;5028762;28;20436;-67
2023/09/25 02:17:58;;;;;;;9.07;3.73;;;7.40;99.90;;;;;;5028180;28;20437;-67
2023/09/25 02:20:26;;;;;;;8.80;3.20;;;7.20;99.90;;;;;;5028512;28;20461;-67
2023/09/25 02:22:54;;;;;;;12.30;3.43;;;7.20;99.90;;;;;;5028135;28;20818;-67
2023/09/25 02:25:22;;;;;;;9.53;2.90;;;7.20;99.90;;;;;;5028194;28;20481;-68
2023/09/25 02:27:50;;;;;;;9.47;3.40;;;7.10;99.90;;;;;;5027727;28;20481;-67
2023/09/25 02:30:18;;;;;;;11.63;4.70;;;7.10;99.90;;;;;;5028474;28;20476;-67
2023/09/25 02:32:47;;;;;;;11.93;3.90;;;7.20;99.90;;;;;;5028270;28;20444;-67
2023/09/25 02:35:15;;;;;;;9.97;3.77;;;7.20;99.90;;;;;;5028302;28;20449;-67
2023/09/25 02:37:44;;;;;;;10.87;3.87;;;7.10;99.90;;;;;;5027367;28;21029;-67
2023/09/25 02:40:13;;;;;;;10.37;4.00;;;7.10;99.90;;;;;;5028277;28;20492;-67
2023/09/25 02:42:43;;;;;;;9.03;3.30;;;7.10;99.90;;;;;;5028099;28;20480;-67
2023/09/25 02:45:12;;;;;;;9.50;3.70;;;7.00;99.90;;;;;;5028135;28;20477;-67
2023/09/25 02:47:39;;;;;;;8.70;3.67;;;7.00;99.90;;;;;;5027013;28;20536;-67
2023/09/25 02:50:10;;;;;;;9.00;3.03;;;7.00;99.90;;;;;;5027734;28;20475;-67
2023/09/25 02:52:38;;;;;;;9.03;3.10;;;7.00;99.90;;;;;;5028185;28;20990;-67
2023/09/25 02:55:07;;;;;;;11.57;4.17;;;6.80;99.90;;;;;;5028195;28;20453;-66
2023/09/25 02:57:35;;;;;;;9.20;3.63;;;6.70;99.90;;;;;;5027216;28;20980;-66
2023/09/25 03:00:13;;;;;;;9.10;3.80;;;6.90;99.90;;;;;;5027719;28;20483;-67
2023/09/25 03:02:41;;;;;;;9.77;3.20;;;6.90;99.90;;;;;;5027831;28;20438;-67
2023/09/25 03:05:11;;;;;;;10.70;4.30;;;7.00;99.90;;;;;;5027893;28;20485;-67
2023/09/25 03:07:39;;;;;;;11.30;3.80;;;7.00;99.90;;;;;;5030884;28;20449;-67
2023/09/25 03:10:08;;;;;;;11.43;3.90;;;6.90;99.90;;;;;;5031153;28;20546;-67
2023/09/25 03:12:36;;;;;;;8.77;3.40;;;6.90;99.90;;;;;;5031553;28;20445;-66
2023/09/25 03:15:05;;;;;;;9.70;3.87;;;6.80;99.90;;;;;;5031366;28;20524;-68
2023/09/25 03:17:35;;;;;;;9.47;3.13;;;6.80;99.90;;;;;;5031220;28;20457;-67
2023/09/25 03:20:12;;;;;;;8.43;3.50;;;6.70;99.90;;;;;;5023443;28;20472;-66
2023/09/25 03:22:42;;;;;;;12.27;4.20;;;6.60;99.90;;;;;;5028226;28;20535;-67
2023/09/25 03:25:11;;;;;;;11.13;3.70;;;6.70;99.90;;;;;;5030930;28;20480;-67
2023/09/25 03:27:39;;;;;;;10.50;4.17;;;6.80;99.90;;;;;;5030740;28;20449;-67
2023/09/25 03:30:08;;;;;;;11.53;4.50;;;6.90;99.90;;;;;;5030897;28;20478;-67
2023/09/25 03:32:37;;;;;;;16.47;4.60;;;6.80;99.90;;;;;;5031106;28;20476;-66
2023/09/25 03:35:06;;;;;;;10.10;3.70;;;6.70;99.90;;;;;;5031132;28;20939;-66
2023/09/25 03:37:34;;;;;;;11.53;4.30;;;6.60;99.90;;;;;;5030904;28;20447;-66
2023/09/25 03:40:07;;;;;;;10.70;4.20;;;6.60;99.90;;;;;;5030869;28;20473;-67
2023/09/25 03:42:36;;;;;;;10.40;4.10;;;6.60;99.90;;;;;;5030989;28;20524;-65
2023/09/25 03:45:05;;;;;;;10.10;4.07;;;6.60;99.90;;;;;;5023242;28;20556;-68
2023/09/25 03:47:34;;;;;;;11.20;4.33;;;6.60;99.90;;;;;;5030646;28;20448;-68
2023/09/25 03:50:02;;;;;;;12.13;4.10;;;6.60;99.90;;;;;;5030563;28;20464;-69
2023/09/25 03:52:30;;;;;;;9.80;4.30;;;6.50;99.90;;;;;;5030467;28;20476;-67
2023/09/25 03:54:58;;;;;;;11.40;4.20;;;6.70;99.90;;;;;;5030271;28;20437;-68
2023/09/25 03:57:28;;;;;;;10.17;4.20;;;6.60;99.90;;;;;;5030171;28;20448;-67
2023/09/25 03:59:56;;;;;;;11.30;5.20;;;6.50;99.90;;;;;;5030260;28;20468;-68
2023/09/25 04:02:24;;;;;;;9.40;3.67;;;6.50;99.90;;;;;;5030313;28;20516;-67
2023/09/25 04:04:52;;;;;;;12.07;3.90;;;6.40;99.90;;;;;;5030006;28;20490;-68
2023/09/25 04:07:20;;;;;;;10.03;4.23;;;6.40;99.90;;;;;;5037578;28;20455;-66
2023/09/25 04:09:48;;;;;;;10.10;3.80;;;6.30;99.90;;;;;;5030116;28;20470;-66
2023/09/25 04:12:16;;;;;;;10.33;4.20;;;6.30;99.90;;;;;;5032200;28;20449;-65
2023/09/25 04:14:45;;;;;;;9.97;4.20;;;6.30;99.90;;;;;;5030125;28;20503;-65
2023/09/25 04:17:15;;;;;;;10.13;3.90;;;6.40;99.90;;;;;;5029678;28;20494;-65
2023/09/25 04:19:44;;;;;;;9.50;3.80;;;6.50;99.90;;;;;;5029721;28;20558;-65
2023/09/25 04:22:12;;;;;;;10.43;4.17;;;6.50;99.90;;;;;;5030270;28;20455;-65
2023/09/25 04:24:40;;;;;;;11.40;4.00;;;6.40;99.90;;;;;;5030060;28;20880;-66
2023/09/25 04:27:09;;;;;;;9.33;3.90;;;6.40;99.90;;;;;;5030091;28;20445;-65
2023/09/25 04:29:39;;;;;;;9.23;3.50;;;6.40;99.90;;;;;;5029604;28;20547;-66
2023/09/25 04:32:08;;;;;;;11.10;4.53;;;6.20;99.90;;;;;;5030029;28;20455;-66
2023/09/25 04:34:36;;;;;;;10.43;4.07;;;6.20;99.90;;;;;;5029844;28;20534;-65
2023/09/25 04:37:07;;;;;;;9.27;3.87;;;6.20;99.90;;;;;;5022213;28;20443;-66
2023/09/25 04:39:35;;;;;;;10.67;4.47;;;6.20;99.90;;;;;;5030411;28;20547;-65
2023/09/25 04:42:03;;;;;;;11.50;4.13;;;6.40;99.90;;;;;;5022456;28;20453;-65
2023/09/25 04:44:30;;;;;;;11.93;4.27;;;6.40;99.90;;;;;;5030339;28;20507;-65
2023/09/25 04:46:59;;;;;;;10.27;4.30;;;6.30;99.90;;;;;;5029986;28;20510;-67
2023/09/25 04:49:30;;;;;;;10.40;4.43;;;6.20;99.90;;;;;;5030357;28;20841;-67
2023/09/25 04:51:58;;;;;;;11.10;4.43;;;6.20;99.90;;;;;;5030078;28;20456;-67
2023/09/25 04:54:26;;;;;;;8.67;3.63;;;6.30;99.90;;;;;;5029481;28;21235;-72
2023/09/25 04:56:54;;;;;;;10.03;4.13;;;6.20;99.90;;;;;;5029299;28;20860;-66
2023/09/25 04:59:22;;;;;;;9.27;3.53;;;6.20;99.90;;;;;;5028947;28;20498;-66
2023/09/25 05:01:50;;;;;;;10.53;3.90;;;6.10;99.90;;;;;;5029697;28;20449;-69
2023/09/25 05:04:19;;;;;;;9.17;3.17;;;6.00;99.90;;;;;;5024325;28;20979;-67
2023/09/25 05:06:48;;;;;;;12.77;4.43;;;6.00;99.90;;;;;;5026227;28;20578;-67
2023/09/25 05:09:16;;;;;;;10.53;4.63;;;6.00;99.90;;;;;;5028414;28;21165;-66
2023/09/25 05:11:44;;;;;;;10.33;4.00;;;6.10;99.90;;;;;;5028958;28;20456;-66
2023/09/25 05:14:12;;;;;;;10.60;3.90;;;6.10;99.90;;;;;;5028705;28;20451;-66
2023/09/25 05:16:40;;;;;;;13.43;4.80;;;6.00;99.90;;;;;;5028438;28;21229;-66
2023/09/25 05:19:08;;;;;;;12.17;4.33;;;5.90;99.90;;;;;;5028073;28;20468;-66
2023/09/25 05:21:36;;;;;;;13.27;4.83;;;6.00;99.90;;;;;;5028746;28;20439;-66
2023/09/25 05:24:06;;;;;;;11.67;4.17;;;6.10;99.90;;;;;;5026886;28;20502;-66
2023/09/25 05:26:36;;;;;;;11.70;4.50;;;6.10;99.90;;;;;;5023504;28;20534;-67
2023/09/25 05:29:05;;;;;;;9.60;4.10;;;6.00;99.90;;;;;;5027037;28;20495;-68
2023/09/25 05:31:33;;;;;;;10.43;3.93;;;6.20;99.90;;;;;;5028448;28;20540;-67
2023/09/25 05:34:02;;;;;;;10.10;4.20;;;6.30;99.90;;;;;;5027265;28;20460;-67
2023/09/25 05:36:30;;;;;;;10.23;3.70;;;6.40;99.90;;;;;;5028365;28;20955;-66
2023/09/25 05:38:58;;;;;;;10.37;4.40;;;6.40;99.90;;;;;;5028417;28;20472;-68
2023/09/25 05:41:28;;;;;;;12.97;3.77;;;6.50;99.90;;;;;;5029607;28;20456;-68
2023/09/25 05:43:56;;;;;;;11.53;4.07;;;6.40;99.90;;;;;;5030718;28;20462;-67
2023/09/25 05:46:25;;;;;;;13.23;4.70;;;6.30;99.90;;;;;;5029422;28;20504;-67
2023/09/25 05:48:54;;;;;;;9.30;4.20;;;6.40;99.90;;;;;;5028928;28;20476;-68
2023/09/25 05:51:25;;;;;;;12.43;4.23;;;6.40;99.90;;;;;;5029262;28;20443;-67
2023/09/25 05:53:53;;;;;;;10.53;5.00;;;6.40;99.90;;;;;;5028925;28;20449;-68
2023/09/25 05:56:22;;;;;;;10.80;4.43;;;6.50;99.90;;;;;;5029320;28;21050;-67
2023/09/25 05:58:52;;;;;;;12.63;5.30;;;6.60;99.90;;;;;;5028464;28;20448;-69
2023/09/25 06:01:21;;;;;;;13.87;5.43;;;6.50;99.90;;;;;;5028901;28;20525;-69
2023/09/25 06:03:50;;;;;;;10.50;4.67;;;6.60;99.90;;;;;;5028522;28;20908;-70
2023/09/25 06:06:19;;;;;;;12.87;5.27;;;6.60;99.90;;;;;;5026559;28;20534;-68
2023/09/25 06:08:48;;;;;;;14.63;5.63;;;6.60;99.90;;;;;;5027685;28;20453;-67
2023/09/25 06:11:16;;;;;;;11.17;4.83;;;6.60;99.90;;;;;;5028593;28;20455;-68
2023/09/25 06:13:44;;;;;;;11.23;5.57;;;6.70;99.90;;;;;;5028441;28;20445;-69
2023/09/25 06:16:14;;;;;;;14.33;5.27;;;6.80;99.90;;;;;;5028703;28;20457;-67
2023/09/25 06:18:42;;;;;;;11.03;5.10;;;6.80;99.90;;;;;;5027913;28;20672;-66
2023/09/25 06:21:13;;;;;;;13.40;5.00;;;6.90;99.90;;;;;;5028639;28;20461;-66
2023/09/25 06:23:41;;;;;;;13.33;5.53;;;7.10;99.90;;;;;;5028290;28;20456;-68
2023/09/25 06:26:10;;;;;;;13.70;5.40;;;7.20;99.90;;;;;;5028109;28;20503;-68
2023/09/25 06:28:38;;;;;;;11.37;5.03;;;7.40;99.90;;;;;;5027964;28;20445;-66
2023/09/25 06:31:06;;;;;;;13.37;4.40;;;7.50;99.90;;;;;;5019960;28;20536;-66
2023/09/25 06:33:36;;;;;;;11.30;4.73;;;7.60;99.90;;;;;;5028436;28;20535;-67
2023/09/25 06:36:04;;;;;;;12.13;4.83;;;7.70;99.90;;;;;;5028288;28;20818;-67
2023/09/25 06:38:32;;;;;;;12.30;5.20;;;7.70;99.90;;;;;;5027822;28;20527;-66
2023/09/25 06:41:00;;;;;;;12.17;6.37;;;7.80;99.90;;;;;;5030116;28;20505;-66
2023/09/25 06:43:28;;;;;;;10.53;5.10;;;7.80;99.90;;;;;;5032023;28;20451;-67
2023/09/25 06:45:56;;;;;;;11.07;5.70;;;8.00;99.90;;;;;;5031677;28;20824;-66
2023/09/25 06:48:24;;;;;;;11.23;5.30;;;8.20;99.90;;;;;;5031423;28;20462;-67
2023/09/25 06:50:53;;;;;;;9.60;4.63;;;8.20;99.90;;;;;;5031964;28;20919;-69
2023/09/25 06:53:22;;;;;;;10.63;4.80;;;8.30;99.90;;;;;;5032070;28;20454;-67
2023/09/25 06:55:49;;;;;;;13.37;5.80;;;8.40;99.90;;;;;;5031892;28;20453;-67
2023/09/25 06:58:17;;;;;;;11.33;5.07;;;8.50;99.90;;;;;;5031336;28;20448;-67
2023/09/25 07:00:46;;;;;;;10.93;4.03;;;8.60;99.90;;;;;;5031440;28;20494;-68
2023/09/25 07:03:24;;;;;;;10.40;4.20;;;8.70;99.90;;;;;;5032155;28;20447;-68
2023/09/25 07:05:54;;;;;;;10.60;4.60;;;8.80;99.90;;;;;;5031616;28;20444;-68
2023/09/25 07:08:22;;;;;;;10.63;4.33;;;8.90;99.90;;;;;;5031186;28;20584;-67
2023/09/25 07:10:50;;;;;;;12.57;5.13;;;9.00;99.90;;;;;;5031459;28;20467;-68
2023/09/25 07:13:19;;;;;;;13.40;5.53;;;9.10;99.90;;;;;;5032049;28;20447;-67
2023/09/25 07:15:48;;;;;;;9.83;4.67;;;9.20;99.90;;;;;;5031455;28;20931;-68
2023/09/25 07:18:17;;;;;;;10.60;5.30;;;9.20;99.90;;;;;;5030688;28;20444;-69
2023/09/25 07:20:45;;;;;;;12.10;4.67;;;9.30;99.90;;;;;;5031435;28;20495;-67
2023/09/25 07:23:14;;;;;;;11.20;4.80;;;9.40;99.90;;;;;;5031387;28;20511;-68
2023/09/25 07:25:42;;;;;;;9.63;4.00;;;9.60;99.90;;;;;;5031228;28;20453;-69
2023/09/25 07:28:11;;;;;;;10.00;3.97;;;9.70;99.90;;;;;;5023233;28;20836;-67
2023/09/25 07:30:42;;;;;;;9.20;4.07;;;9.90;99.90;;;;;;5031224;28;20517;-68
2023/09/25 07:33:10;;;;;;;10.20;4.17;;;10.00;99.90;;;;;;5031407;28;20441;-67
2023/09/25 07:35:38;;;;;;;9.10;3.97;;;10.10;99.90;;;;;;5031060;28;20951;-67
2023/09/25 07:38:06;;;;;;;7.97;3.20;;;10.30;99.90;;;;;;5030433;28;20814;-67
2023/09/25 07:40:36;;;;;;;10.13;3.67;;;10.50;99.90;;;;;;5031146;28;20464;-67
2023/09/25 07:43:04;;;;;;;10.00;3.70;;;10.60;99.90;;;;;;5031169;28;20816;-68
2023/09/25 07:45:32;;;;;;;10.60;4.40;;;10.70;99.90;;;;;;5029979;28;20520;-68
2023/09/25 07:48:00;;;;;;;14.10;4.60;;;10.90;99.90;;;;;;5030073;28;20485;-68
2023/09/25 07:50:28;;;;;;;9.80;4.20;;;11.10;99.90;;;;;;5030745;28;20556;-68
2023/09/25 07:52:58;;;;;;;9.37;3.90;;;11.30;99.90;;;;;;5030542;28;20446;-69
2023/09/25 07:55:26;;;;;;;9.63;3.67;;;11.50;99.90;;;;;;5030943;28;20447;-68
2023/09/25 07:57:56;;;;;;;9.23;3.77;;;11.60;99.90;;;;;;5030271;28;20448;-68
2023/09/25 08:00:24;;;;;;;13.83;4.00;;;11.70;99.90;;;;;;5030788;28;21108;-68
2023/09/25 08:02:53;;;;;;;11.70;4.20;;;11.90;99.90;;;;;;5030699;28;20541;-69
2023/09/25 08:05:22;;;;;;;9.20;3.90;;;12.00;99.90;;;;;;5030454;28;20450;-66
2023/09/25 08:07:51;;;;;;;9.73;3.80;;;12.20;99.90;;;;;;5030249;28;20483;-68
2023/09/25 08:10:23;;;;;;;11.30;3.60;;;12.50;99.90;;;;;;5030599;28;20459;-67
2023/09/25 08:12:51;;;;;;;9.70;3.47;;;12.60;99.90;;;;;;5030308;28;20930;-67
2023/09/25 08:15:21;;;;;;;11.03;4.07;;;12.70;99.90;;;;;;5027754;28;20468;-67
2023/09/25 08:17:49;;;;;;;9.93;3.60;;;12.70;99.90;;;;;;5029000;28;20433;-68
2023/09/25 08:20:20;;;;;;;9.87;3.87;;;12.80;99.90;;;;;;5030179;28;20875;-67
2023/09/25 08:22:50;;;;;;;11.37;3.80;;;12.90;99.90;;;;;;5029888;28;20441;-69
2023/09/25 08:25:19;;;;;;;9.53;3.87;;;13.00;99.90;;;;;;5029666;28;21219;-68
2023/09/25 08:27:48;;;;;;;9.87;3.27;;;13.30;99.90;;;;;;5029021;28;20925;-67
2023/09/25 08:30:16;;;;;;;11.53;3.27;;;13.50;99.90;;;;;;5030106;28;20857;-67
2023/09/25 08:32:46;;;;;;;9.00;3.30;;;13.80;99.90;;;;;;5028595;28;20478;-68
2023/09/25 08:35:14;;;;;;;10.20;3.87;;;14.00;99.90;;;;;;5030373;28;20433;-68
2023/09/25 08:37:42;;;;;;;8.70;3.50;;;14.20;99.90;;;;;;5029575;28;20465;-68
2023/09/25 08:40:10;;;;;;;9.27;3.73;;;14.30;99.90;;;;;;5029669;28;20471;-68
2023/09/25 08:42:38;;;;;;;8.73;3.27;;;14.50;99.90;;;;;;5029562;28;20869;-67
2023/09/25 08:45:08;;;;;;;9.10;3.13;;;14.80;99.90;;;;;;5026629;28;20440;-67
2023/09/25 08:47:37;;;;;;;11.77;4.20;;;14.90;99.90;;;;;;5029544;28;20477;-68
2023/09/25 08:50:10;;;;;;;7.93;2.60;;;15.10;99.90;;;;;;5029427;28;20557;-68
2023/09/25 08:52:38;;;;;;;8.80;3.03;;;15.20;99.90;;;;;;5025620;28;20526;-69
2023/09/25 08:55:08;;;;;;;7.70;2.70;;;15.40;99.90;;;;;;5029497;28;20511;-68
2023/09/25 08:57:39;;;;;;;7.87;2.60;;;15.60;99.90;;;;;;5029084;28;20440;-68
2023/09/25 09:00:11;;;;;;;8.27;2.93;;;15.90;99.90;;;;;;5029410;28;20469;-68
2023/09/25 09:02:41;;;;;;;9.60;2.63;;;16.40;99.90;;;;;;5024847;28;20472;-67
2023/09/25 09:05:12;;;;;;;9.77;2.63;;;16.80;99.90;;;;;;5029263;28;20429;-68
2023/09/25 09:07:55;;;;;;;8.50;3.03;;;17.30;99.90;;;;;;5029157;28;20477;-69
2023/09/25 09:10:23;;;;;;;9.17;2.60;;;17.50;99.90;;;;;;5027725;28;20457;-69
2023/09/25 09:12:56;;;;;;;7.40;2.20;;;17.80;99.90;;;;;;5028990;28;20447;-69
2023/09/25 09:15:31;;;;;;;8.53;2.57;;;18.10;99.90;;;;;;5029439;28;20517;-68
2023/09/25 09:18:16;;;;;;;7.43;2.23;;;18.60;99.90;;;;;;5028619;28;20429;-68
2023/09/25 09:20:46;;;;;;;7.33;2.23;;;18.60;99.90;;;;;;5025760;28;20445;-66
2023/09/25 09:23:14;;;;;;;8.47;2.73;;;18.80;99.90;;;;;;5021270;28;20441;-68
2023/09/25 09:25:45;;;;;;;6.90;2.10;;;19.00;99.90;;;;;;5029128;28;20441;-69
2023/09/25 09:28:14;;;;;;;8.70;2.70;;;19.10;99.90;;;;;;5025585;28;20472;-68
2023/09/25 09:30:43;;;;;;;8.90;2.87;;;19.10;99.90;;;;;;5028763;28;20526;-68
2023/09/25 09:33:11;;;;;;;8.30;2.43;;;19.20;99.90;;;;;;5028950;28;20520;-69
2023/09/25 09:35:41;;;;;;;7.83;2.70;;;19.20;99.90;;;;;;5029210;28;20865;-68
2023/09/25 09:38:11;;;;;;;8.17;2.37;;;19.00;99.90;;;;;;5028193;28;20441;-69
2023/09/25 09:40:39;;;;;;;7.90;2.20;;;19.30;99.90;;;;;;5024595;28;20449;-69
2023/09/25 09:43:07;;;;;;;8.27;2.60;;;19.40;99.90;;;;;;5028004;28;20862;-68
2023/09/25 09:45:37;;;;;;;7.90;2.50;;;19.60;99.90;;;;;;5028863;28;21100;-68
2023/09/25 09:48:09;;;;;;;9.47;2.67;;;19.80;99.50;;;;;;5028426;28;20477;-68
2023/09/25 09:50:39;;;;;;;8.20;2.47;;;20.10;99.00;;;;;;5024395;28;20495;-69
2023/09/25 09:53:08;;;;;;;7.80;2.17;;;20.10;99.40;;;;;;5028467;28;21011;-68
2023/09/25 09:55:38;;;;;;;11.27;2.50;;;20.30;97.80;;;;;;5028775;28;21044;-68
2023/09/25 09:58:08;;;;;;;9.30;2.47;;;20.70;96.80;;;;;;5027921;28;20437;-68
2023/09/25 10:00:38;;;;;;;8.37;2.37;;;21.00;95.00;;;;;;5024053;28;20560;-68
2023/09/25 10:03:08;;;;;;;7.53;2.33;;;21.40;93.10;;;;;;5028810;28;20453;-68
2023/09/25 10:05:44;;;;;;;9.50;2.50;;;21.20;93.60;;;;;;5028809;28;20456;-69
2023/09/25 10:08:12;;;;;;;8.07;2.20;;;21.40;91.60;;;;;;5028194;28;20511;-68
2023/09/25 10:10:45;;;;;;;7.57;1.83;;;21.70;92.80;;;;;;5028187;28;20486;-70
2023/09/25 10:13:15;;;;;;;8.67;2.77;;;22.00;92.60;;;;;;5021733;28;20433;-68
2023/09/25 10:15:53;;;;;;;8.00;2.30;;;22.50;91.00;;;;;;5031919;28;20437;-68
2023/09/25 10:18:21;;;;;;;9.93;2.30;;;22.90;89.40;;;;;;5025119;28;20464;-68
2023/09/25 10:20:49;;;;;;;8.17;2.20;;;23.30;88.10;;;;;;5032318;28;20472;-68
2023/09/25 10:23:22;;;;;;;9.93;2.30;;;23.30;80.50;;;;;;5032571;28;20527;-68
2023/09/25 10:25:53;;;;;;;7.43;2.30;;;23.00;80.20;;;;;;5032335;28;20949;-69
2023/09/25 10:28:27;;;;;;;8.03;3.00;;;22.80;80.80;;;;;;5031999;28;20480;-67
2023/09/25 10:30:58;;;;;;;8.70;2.40;;;23.00;78.10;;;;;;5032294;28;20459;-67
2023/09/25 10:33:28;;;;;;;8.27;2.30;;;23.00;77.60;;;;;;5032582;28;20463;-67
2023/09/25 10:36:01;;;;;;;8.40;2.53;;;23.10;75.80;;;;;;5031941;28;20437;-67
2023/09/25 10:38:32;;;;;;;8.10;2.60;;;23.00;75.70;;;;;;5031611;28;20472;-68
2023/09/25 10:41:03;;;;;;;7.60;2.20;;;23.10;75.00;;;;;;5030965;28;20856;-67
2023/09/25 10:43:32;;;;;;;6.87;1.80;;;23.60;73.10;;;;;;5031979;28;20478;-66
2023/09/25 10:46:01;;;;;;;8.37;2.50;;;23.90;76.70;;;;;;5031524;28;20475;-68
2023/09/25 10:48:31;;;;;;;9.53;2.60;;;24.50;71.60;;;;;;5031107;28;20472;-66
2023/09/25 10:50:59;;;;;;;8.23;2.50;;;24.30;70.10;;;;;;5032038;28;20457;-67
2023/09/25 10:53:27;;;;;;;7.07;1.97;;;24.40;65.30;;;;;;5032060;28;20452;-67
2023/09/25 10:55:55;;;;;;;7.30;1.83;;;24.90;62.90;;;;;;5031679;28;20437;-68
2023/09/25 10:58:25;;;;;;;7.07;1.80;;;25.50;65.10;;;;;;5031305;28;20527;-68
2023/09/25 11:00:53;;;;;;;7.80;2.07;;;26.20;61.80;;;;;;5031783;28;20890;-68
2023/09/25 11:03:21;;;;;;;7.90;2.10;;;26.70;59.10;;;;;;5032107;28;20938;-67
2023/09/25 11:05:50;;;;;;;7.63;2.07;;;26.90;55.90;;;;;;5032304;28;20440;-68
2023/09/25 11:08:19;;;;;;;8.90;2.70;;;26.90;57.60;;;;;;5031537;28;20441;-67
2023/09/25 11:10:48;;;;;;;8.63;2.40;;;26.70;56.90;;;;;;5031831;28;20489;-68
2023/09/25 11:13:16;;;;;;;8.37;2.80;;;25.90;60.20;;;;;;5024247;28;20441;-66
2023/09/25 11:15:47;;;;;;;8.17;2.30;;;25.40;58.50;;;;;;5032305;28;20516;-67
2023/09/25 11:18:18;;;;;;;7.97;2.40;;;24.50;60.20;;;;;;5023267;28;20444;-69
2023/09/25 11:20:47;;;;;;;8.93;1.97;;;24.00;61.00;;;;;;5031782;28;20695;-68
2023/09/25 11:23:17;;;;;;;8.50;2.40;;;24.20;60.00;;;;;;5031352;28;20441;-68
2023/09/25 11:25:51;;;;;;;7.33;2.00;;;24.40;58.70;;;;;;5030816;28;20847;-68
2023/09/25 11:28:21;;;;;;;7.63;2.03;;;25.00;58.70;;;;;;5030154;28;20705;-69
2023/09/25 11:30:51;;;;;;;8.07;2.00;;;25.40;61.50;;;;;;5031039;28;20481;-69
2023/09/25 11:33:24;;;;;;;9.57;2.50;;;26.30;56.70;;;;;;5031328;28;20772;-70
2023/09/25 11:35:54;;;;;;;8.17;2.13;;;27.20;54.50;;;;;;5031172;28;21033;-70
2023/09/25 11:38:25;;;;;;;9.80;2.37;;;27.90;53.20;;;;;;5031162;28;20439;-69
2023/09/25 11:40:53;;;;;;;7.63;1.87;;;28.40;52.40;;;;;;5030836;28;20460;-70
2023/09/25 11:43:23;;;;;;;7.73;2.47;;;28.30;49.90;;;;;;5031260;28;20535;-69
2023/09/25 11:45:54;;;;;;;9.47;2.10;;;27.30;52.10;;;;;;5030976;28;20448;-70
2023/09/25 11:48:22;;;;;;;7.60;2.07;;;27.10;52.20;;;;;;5030440;28;20504;-70
2023/09/25 11:50:50;;;;;;;8.70;2.27;;;27.70;52.80;;;;;;5030782;28;20480;-68
2023/09/25 11:53:19;;;;;;;8.67;1.70;;;28.80;50.30;;;;;;5030951;28;20445;-70
2023/09/25 11:55:48;;;;;;;8.70;2.10;;;28.80;49.40;;;;;;5030967;28;21113;-70
2023/09/25 11:58:17;;;;;;;7.60;1.47;;;29.30;48.20;;;;;;5022438;28;20483;-70
2023/09/25 12:00:45;;;;;;;8.43;1.90;;;30.20;45.70;;;;;;5030866;28;20457;-70
2023/09/25 12:03:14;;;;;;;6.90;1.47;;;30.90;47.10;;;;;;5030574;28;20441;-70
2023/09/25 12:05:42;;;;;;;9.10;2.03;;;31.40;44.20;;;;;;5030420;28;20444;-70
2023/09/25 12:08:12;;;;;;;6.80;1.50;;;32.00;42.90;;;;;;5029849;28;20811;-70
2023/09/25 12:10:40;;;;;;;7.40;1.80;;;32.30;43.00;;;;;;5030029;28;20491;-70
2023/09/25 12:13:09;;;;;;;6.50;1.60;;;32.90;39.40;;;;;;5030156;28;20548;-70
2023/09/25 12:15:38;;;;;;;6.77;1.87;;;33.10;36.70;;;;;;5030035;28;20437;-69
2023/09/25 12:18:06;;;;;;;6.63;1.50;;;32.60;39.70;;;;;;5029876;28;20491;-70
2023/09/25 12:20:41;;;;;;;7.47;1.70;;;32.80;38.50;;;;;;5030199;28;20457;-70
2023/09/25 12:23:10;;;;;;;7.20;1.73;;;33.40;37.10;;;;;;5029768;28;20444;-69
2023/09/25 12:25:38;;;;;;;6.60;1.57;;;33.90;37.90;;;;;;5027884;28;20476;-70
2023/09/25 12:28:06;;;;;;;9.23;1.60;;;34.10;36.60;;;;;;5028571;28;21088;-69
2023/09/25 12:30:35;;;;;;;6.60;1.63;;;34.40;37.00;;;;;;5030253;28;20555;-69
2023/09/25 12:33:05;;;;;;;8.20;1.77;;;34.70;36.70;;;;;;5029711;28;20940;-71
2023/09/25 12:35:33;;;;;;;6.90;1.90;;;35.10;35.20;;;;;;5029646;28;20456;-70
2023/09/25 12:38:02;;;;;;;7.10;2.20;;;35.00;33.50;;;;;;5028191;28;20852;-70
2023/09/25 12:40:30;;;;;;;7.97;1.80;;;35.20;34.00;;;;;;5029695;28;20463;-70
2023/09/25 12:42:58;;;;;;;7.00;1.67;;;35.20;35.50;;;;;;5029658;28;20456;-69
2023/09/25 12:45:26;;;;;;;6.80;1.50;;;35.50;35.50;;;;;;5029869;28;20805;-70
2023/09/25 12:47:55;;;;;;;7.73;1.73;;;35.80;34.00;;;;;;5029417;28;20453;-70
2023/09/25 12:50:24;;;;;;;6.90;1.50;;;36.40;34.00;;;;;;5029610;28;20484;-71
2023/09/25 12:52:52;;;;;;;7.60;1.90;;;36.60;33.50;;;;;;5029346;28;20445;-70
2023/09/25 12:55:21;;;;;;;6.77;2.00;;;36.40;34.40;;;;;;5029880;28;20464;-69
2023/09/25 12:57:50;;;;;;;6.83;1.57;;;36.40;32.50;;;;;;5029473;28;20858;-70